createdAt,value
2023-01-13T00:00:09.648Z,1.25
2023-01-13T00:02:36.284Z,1.90
2023-01-13T00:05:03.849Z,0.60
2023-01-13T00:07:30.476Z,0.93
2023-01-13T00:09:57.094Z,1.83
2023-01-13T00:12:23.645Z,2.50
2023-01-13T00:14:50.216Z,2.60
2023-01-13T00:17:16.767Z,1.95
2023-01-13T00:19:43.284Z,1.58
2023-01-13T00:22:09.896Z,4.35
2023-01-13T00:24:36.449Z,2.03
2023-01-13T00:27:03.135Z,3.85
2023-01-13T00:29:29.732Z,3.90
2023-01-13T00:31:56.365Z,2.08
2023-01-13T00:34:22.923Z,1.73
2023-01-13T00:36:49.470Z,2.20
2023-01-13T00:39:16.111Z,3.58
2023-01-13T00:42:01.335Z,1.25
2023-01-13T00:44:27.857Z,3.40
2023-01-13T00:46:54.460Z,1.38
2023-01-13T00:49:20.997Z,3.05
2023-01-13T00:51:47.514Z,2.28
2023-01-13T00:54:14.035Z,2.55
2023-01-13T00:56:41.520Z,6.07
2023-01-13T00:59:11.484Z,1.27
2023-01-13T01:01:38.540Z,2.28
2023-01-13T01:04:05.487Z,2.20
2023-01-13T01:06:32.070Z,1.70
2023-01-13T01:08:58.780Z,1.35
2023-01-13T01:11:31.062Z,3.28
2023-01-13T01:14:00.185Z,4.13
2023-01-13T01:16:28.686Z,1.80
2023-01-13T01:18:55.692Z,4.43
2023-01-13T01:21:24.244Z,2.03
2023-01-13T01:23:51.249Z,2.17
2023-01-13T01:26:20.328Z,1.23
2023-01-13T01:28:47.332Z,2.92
2023-01-13T01:31:23.276Z,1.35
2023-01-13T01:33:50.997Z,1.88
2023-01-13T01:36:20.190Z,2.30
2023-01-13T01:38:47.706Z,1.95
2023-01-13T01:41:19.897Z,2.17
2023-01-13T01:44:05.996Z,1.45
2023-01-13T01:46:40.882Z,5.20
2023-01-13T01:49:21.579Z,3.28
2023-01-13T01:52:02.201Z,3.33
2023-01-13T01:54:38.515Z,2.63
2023-01-13T01:57:08.330Z,2.47
2023-01-13T01:59:36.539Z,2.50
2023-01-13T02:02:03.311Z,1.02
2023-01-13T02:04:34.651Z,2.38
2023-01-13T02:07:02.851Z,1.65
2023-01-13T02:09:30.473Z,3.35
2023-01-13T02:12:15.788Z,0.85
2023-01-13T02:14:43.144Z,2.67
2023-01-13T02:17:31.975Z,2.88
2023-01-13T02:20:12.590Z,1.40
2023-01-13T02:22:52.040Z,1.50
2023-01-13T02:25:55.937Z,3.50
2023-01-13T02:29:08.544Z,1.67
2023-01-13T02:31:43.705Z,1.65
2023-01-13T02:34:13.486Z,1.40
2023-01-13T02:36:52.803Z,1.17
2023-01-13T02:39:28.105Z,3.80
2023-01-13T02:42:40.550Z,2.65
2023-01-13T02:45:13.085Z,0.73
2023-01-13T02:47:42.415Z,3.45
2023-01-13T02:50:17.476Z,3.38
2023-01-13T02:52:50.400Z,3.58
2023-01-13T02:55:22.145Z,3.05
2023-01-13T02:57:51.109Z,2.03
2023-01-13T03:00:19.270Z,0.65
2023-01-13T03:02:48.014Z,1.20
2023-01-13T03:05:16.769Z,1.23
2023-01-13T03:08:09.549Z,2.05
2023-01-13T03:11:06.427Z,1.08
2023-01-13T03:13:56.899Z,2.13
2023-01-13T03:16:51.296Z,1.15
2023-01-13T03:19:48.674Z,1.15
2023-01-13T03:22:22.846Z,4.05
2023-01-13T03:25:00.971Z,4.70
2023-01-13T03:27:37.108Z,2.75
2023-01-13T03:30:07.416Z,0.68
2023-01-13T03:32:38.033Z,2.13
2023-01-13T03:35:21.641Z,0.77
2023-01-13T03:37:58.281Z,1.63
2023-01-13T03:40:28.894Z,3.30
2023-01-13T03:43:21.152Z,1.95
2023-01-13T03:45:51.648Z,2.30
2023-01-13T03:48:20.971Z,2.03
2023-01-13T03:50:52.117Z,1.63
2023-01-13T03:53:26.730Z,1.00
2023-01-13T03:58:33.755Z,1.15
2023-01-13T04:01:10.040Z,1.60
2023-01-13T04:04:03.147Z,1.88
2023-01-13T04:06:51.649Z,4.93
2023-01-13T04:09:31.043Z,0.73
2023-01-13T04:12:25.607Z,0.70
2023-01-13T04:14:53.523Z,2.17
2023-01-13T04:19:46.950Z,1.63
2023-01-13T04:22:13.408Z,0.75
2023-01-13T04:24:39.779Z,2.53
2023-01-13T04:27:06.300Z,1.92
2023-01-13T04:29:32.729Z,0.90
2023-01-13T04:31:59.317Z,1.95
2023-01-13T04:34:28.203Z,1.38
2023-01-13T04:36:54.972Z,2.53
2023-01-13T04:39:21.471Z,2.15
2023-01-13T04:41:59.910Z,1.58
2023-01-13T04:44:27.233Z,1.38
2023-01-13T04:46:53.876Z,0.30
2023-01-13T04:49:20.403Z,2.72
2023-01-13T04:51:46.935Z,3.03
2023-01-13T04:54:13.477Z,0.60
2023-01-13T04:56:40.087Z,0.98
2023-01-13T04:59:06.501Z,0.82
2023-01-13T05:01:33.193Z,1.20
2023-01-13T05:03:59.630Z,2.15
2023-01-13T05:06:26.148Z,1.35
2023-01-13T05:08:52.581Z,0.73
2023-01-13T05:11:37.663Z,1.55
2023-01-13T05:14:22.582Z,1.08
2023-01-13T05:17:00.910Z,1.30
2023-01-13T05:19:32.477Z,1.17
2023-01-13T05:22:18.203Z,0.95
2023-01-13T05:25:03.309Z,0.32
2023-01-13T05:27:31.066Z,1.38
2023-01-13T05:29:57.509Z,1.67
2023-01-13T05:32:24.477Z,1.42
2023-01-13T05:34:50.992Z,0.73
2023-01-13T05:37:17.451Z,0.63
2023-01-13T05:40:02.457Z,1.08
2023-01-13T05:42:47.307Z,2.58
2023-01-13T05:45:13.729Z,1.13
2023-01-13T05:47:40.462Z,0.40
2023-01-13T05:50:07.259Z,1.42
2023-01-13T05:52:33.776Z,0.93
2023-01-13T05:55:00.361Z,1.35
2023-01-13T05:57:26.785Z,0.80
2023-01-13T05:59:53.242Z,1.65
2023-01-13T06:02:19.665Z,0.30
2023-01-13T06:04:46.195Z,2.20
2023-01-13T06:07:12.759Z,0.77
2023-01-13T06:09:39.316Z,3.08
2023-01-13T06:12:06.018Z,0.50
2023-01-13T06:14:41.354Z,1.90
2023-01-13T06:17:08.945Z,0.40
2023-01-13T06:19:35.704Z,2.45
2023-01-13T06:22:23.217Z,0.82
2023-01-13T06:24:51.087Z,1.08
2023-01-13T06:27:18.345Z,0.60
2023-01-13T06:29:44.837Z,1.25
2023-01-13T06:32:18.861Z,0.95
2023-01-13T06:34:51.310Z,0.63
2023-01-13T06:37:23.394Z,1.75
2023-01-13T06:39:49.983Z,1.10
2023-01-13T06:42:35.124Z,0.80
2023-01-13T06:45:01.714Z,0.60
2023-01-13T06:47:28.138Z,0.52
2023-01-13T06:49:54.570Z,2.38
2023-01-13T06:52:21.516Z,1.60
2023-01-13T06:54:48.031Z,0.57
2023-01-13T06:57:14.407Z,0.75
2023-01-13T06:59:40.818Z,1.25
2023-01-13T07:02:07.369Z,0.50
2023-01-13T07:04:33.847Z,0.85
2023-01-13T07:07:00.218Z,3.10
2023-01-13T07:09:26.627Z,1.75
2023-01-13T07:11:53.058Z,0.40
2023-01-13T07:14:38.052Z,0.65
2023-01-13T07:17:04.514Z,1.08
2023-01-13T07:19:31.018Z,0.40
2023-01-13T07:21:57.421Z,1.42
2023-01-13T07:24:23.890Z,0.40
2023-01-13T07:26:51.645Z,1.23
2023-01-13T07:29:18.503Z,0.40
2023-01-13T07:31:45.087Z,0.90
2023-01-13T07:34:11.674Z,1.13
2023-01-13T07:36:39.188Z,1.75
2023-01-13T07:39:05.735Z,1.33
2023-01-13T07:41:50.717Z,0.80
2023-01-13T07:44:17.513Z,0.47
2023-01-13T07:46:43.918Z,0.40
2023-01-13T07:49:10.430Z,0.98
2023-01-13T07:51:40.165Z,0.32
2023-01-13T07:54:07.004Z,1.55
2023-01-13T07:56:33.727Z,1.10
2023-01-13T07:59:01.071Z,1.95
2023-01-13T08:01:28.252Z,0.98
2023-01-13T08:03:56.405Z,0.40
2023-01-13T08:06:23.444Z,1.17
2023-01-13T08:08:50.129Z,0.77
2023-01-13T08:11:16.776Z,0.52
2023-01-13T08:13:43.136Z,0.65
2023-01-13T08:16:12.589Z,0.80
2023-01-13T08:18:39.803Z,0.50
2023-01-13T08:21:11.939Z,1.80
2023-01-13T08:23:38.871Z,0.40
2023-01-13T08:26:08.163Z,0.57
2023-01-13T08:28:35.165Z,0.80
2023-01-13T08:31:04.389Z,1.40
2023-01-13T08:33:31.210Z,0.65
2023-01-13T08:35:57.961Z,1.30
2023-01-13T08:38:24.792Z,1.85
2023-01-13T08:40:51.281Z,0.55
2023-01-13T08:43:17.681Z,1.50
2023-01-13T08:45:44.130Z,1.27
2023-01-13T08:48:10.654Z,0.70
2023-01-13T08:50:37.065Z,0.70
2023-01-13T08:53:03.886Z,2.10
2023-01-13T08:55:30.481Z,1.15
2023-01-13T08:58:14.321Z,2.28
2023-01-13T09:00:42.246Z,0.60
2023-01-13T09:03:08.696Z,1.02
2023-01-13T09:05:35.766Z,0.80
2023-01-13T09:08:02.402Z,1.70
2023-01-13T09:10:28.936Z,1.67
2023-01-13T09:13:13.793Z,1.55
2023-01-13T09:15:43.636Z,1.55
2023-01-13T09:18:10.551Z,0.95
2023-01-13T09:20:37.948Z,0.95
2023-01-13T09:23:06.494Z,1.20
2023-01-13T09:25:36.560Z,1.08
2023-01-13T09:28:04.886Z,0.57
2023-01-13T09:30:31.794Z,1.08
2023-01-13T09:33:17.737Z,1.58
2023-01-13T09:35:44.341Z,1.45
2023-01-13T09:38:10.722Z,2.20
2023-01-13T09:40:39.616Z,2.13
2023-01-13T09:43:39.810Z,1.25
2023-01-13T09:46:44.095Z,2.05
2023-01-13T09:49:32.943Z,1.38
2023-01-13T09:52:14.984Z,1.25
2023-01-13T09:54:48.624Z,1.30
2023-01-13T09:57:16.964Z,0.35
2023-01-13T09:59:44.176Z,0.30
2023-01-13T10:02:35.409Z,0.30
2023-01-13T10:05:27.866Z,1.50
2023-01-13T10:07:59.221Z,0.40
2023-01-13T10:10:39.817Z,1.92
2023-01-13T10:13:20.255Z,0.35
2023-01-13T10:16:02.756Z,0.50
2023-01-13T10:18:37.633Z,2.17
2023-01-13T10:21:24.538Z,0.75
2023-01-13T10:23:58.276Z,0.55
2023-01-13T10:26:57.018Z,2.85
2023-01-13T10:29:28.468Z,1.30
2023-01-13T10:31:56.361Z,0.43
2023-01-13T10:34:23.840Z,1.52
2023-01-13T10:37:00.619Z,1.33
2023-01-13T10:39:27.763Z,0.75
2023-01-13T10:42:02.841Z,1.70
2023-01-13T10:44:47.434Z,0.40
2023-01-13T10:47:47.531Z,0.95
2023-01-13T10:50:13.938Z,0.43
2023-01-13T10:53:01.705Z,0.40
2023-01-13T10:55:38.167Z,1.23
2023-01-13T10:58:20.984Z,0.40
2023-01-13T11:00:49.261Z,0.40
2023-01-13T11:03:23.128Z,0.50
2023-01-13T11:05:59.170Z,1.63
2023-01-13T11:08:43.213Z,5.43
2023-01-13T11:11:27.295Z,1.73
2023-01-13T11:14:16.215Z,0.73
2023-01-13T11:16:53.030Z,0.80
2023-01-13T11:19:27.649Z,1.25
2023-01-13T11:22:15.425Z,1.52
2023-01-13T11:24:51.331Z,0.52
2023-01-13T11:27:24.228Z,0.57
2023-01-13T11:30:18.687Z,0.35
2023-01-13T11:33:09.948Z,0.55
2023-01-13T11:35:43.641Z,0.30
2023-01-13T11:38:52.190Z,0.38
2023-01-13T11:41:42.544Z,0.40
2023-01-13T11:44:25.728Z,0.70
2023-01-13T11:46:53.642Z,0.45
2023-01-13T11:49:29.393Z,2.78
2023-01-13T11:52:15.259Z,0.40
2023-01-13T11:55:01.241Z,0.50
2023-01-13T11:58:05.290Z,3.00
2023-01-13T12:00:56.773Z,1.15
2023-01-13T12:03:31.197Z,1.85
2023-01-13T12:21:59.271Z,1.40
2023-01-13T12:24:53.177Z,2.83
2023-01-13T12:28:04.612Z,4.68
2023-01-13T12:30:44.480Z,2.75
2023-01-13T12:33:24.491Z,2.45
2023-01-13T12:40:01.099Z,3.47
2023-01-13T12:42:56.848Z,4.47
2023-01-13T12:45:28.975Z,0.85
2023-01-13T12:52:22.153Z,1.95
2023-01-13T12:58:29.708Z,1.13
2023-01-13T13:01:32.011Z,3.88
2023-01-13T13:04:21.795Z,4.68
2023-01-13T13:07:10.231Z,6.40
2023-01-13T13:09:52.230Z,4.97
2023-01-13T13:13:00.749Z,7.35
2023-01-13T13:15:29.421Z,5.07
2023-01-13T13:18:17.130Z,5.50
2023-01-13T13:21:06.921Z,5.15
2023-01-13T13:23:33.274Z,3.60
2023-01-13T13:26:17.407Z,5.65
2023-01-13T13:28:59.007Z,4.97
2023-01-13T13:34:20.411Z,4.63
2023-01-13T13:38:00.158Z,5.07
2023-01-13T13:40:50.069Z,5.00
2023-01-13T13:43:36.301Z,7.10
2023-01-13T13:46:21.306Z,2.67
2023-01-13T13:48:53.868Z,4.03
2023-01-13T13:51:27.879Z,3.78
2023-01-13T13:53:55.843Z,5.68
2023-01-13T13:58:52.299Z,4.88
2023-01-13T14:01:28.415Z,6.93
2023-01-13T14:04:23.413Z,2.97
2023-01-13T14:09:28.769Z,2.70
2023-01-13T14:12:03.771Z,4.35
2023-01-13T14:14:30.458Z,3.83
2023-01-13T14:16:57.078Z,3.55
2023-01-13T14:19:31.062Z,7.03
2023-01-13T14:22:01.250Z,6.05
2023-01-13T14:24:29.554Z,5.10
2023-01-13T14:27:15.346Z,7.00
2023-01-13T14:29:42.098Z,4.22
2023-01-13T14:32:09.139Z,5.57
2023-01-13T14:34:36.224Z,1.92
2023-01-13T14:37:03.096Z,4.45
2023-01-13T14:39:39.611Z,7.00
2023-01-13T14:42:12.304Z,4.60
2023-01-13T14:44:45.507Z,4.78
2023-01-13T14:47:28.003Z,3.95
2023-01-13T14:50:03.821Z,5.70
2023-01-13T14:52:36.481Z,3.78
2023-01-13T14:55:05.690Z,4.82
2023-01-13T14:57:37.009Z,4.38
2023-01-13T15:00:15.372Z,4.60
2023-01-13T15:02:57.192Z,7.88
2023-01-13T15:05:33.920Z,4.20
2023-01-13T15:08:05.222Z,4.25
2023-01-13T15:10:46.360Z,5.55
2023-01-13T15:13:48.056Z,5.65
2023-01-13T15:16:24.849Z,7.22
2023-01-13T15:18:52.235Z,5.78
2023-01-13T15:21:18.836Z,3.88
2023-01-13T15:23:47.193Z,4.78
2023-01-13T15:26:23.009Z,5.28
2023-01-13T15:28:50.678Z,6.07
2023-01-13T15:31:17.960Z,6.75
2023-01-13T15:33:44.464Z,7.25
2023-01-13T15:36:29.031Z,5.75
2023-01-13T15:38:55.808Z,4.10
2023-01-13T15:41:41.160Z,9.40
2023-01-13T15:44:29.107Z,6.55
2023-01-13T15:46:56.407Z,5.63
2023-01-13T15:49:44.086Z,12.93
2023-01-13T15:52:22.921Z,7.60
2023-01-13T15:54:50.573Z,9.73
2023-01-13T15:57:23.363Z,7.72
2023-01-13T15:59:51.794Z,10.65
2023-01-13T16:02:18.485Z,4.80
2023-01-13T16:04:45.670Z,6.40
2023-01-13T16:07:17.187Z,7.78
2023-01-13T16:09:44.957Z,8.95
2023-01-13T16:12:12.625Z,12.93
2023-01-13T16:14:39.474Z,5.80
2023-01-13T16:17:20.798Z,7.22
2023-01-13T16:19:47.566Z,5.38
2023-01-13T16:22:15.440Z,5.50
2023-01-13T16:24:42.208Z,6.15
2023-01-13T16:27:20.127Z,4.10
2023-01-13T16:29:47.567Z,4.68
2023-01-13T16:32:14.334Z,7.68
2023-01-13T16:34:40.809Z,10.98
2023-01-13T16:37:20.614Z,5.60
2023-01-13T16:39:47.530Z,8.63
2023-01-13T16:42:14.327Z,4.22
2023-01-13T16:44:41.049Z,7.10
2023-01-13T16:50:46.314Z,4.97
2023-01-13T16:53:12.737Z,5.70
2023-01-13T16:55:40.766Z,5.80
2023-01-13T16:58:17.113Z,4.00
2023-01-13T17:00:46.833Z,6.13
2023-01-13T17:03:14.886Z,7.40
2023-01-13T17:05:43.100Z,8.13
2023-01-13T17:10:45.376Z,12.98
2023-01-13T17:15:43.428Z,4.10
2023-01-13T17:18:58.939Z,4.25
2023-01-13T17:21:25.365Z,4.88
2023-01-13T17:23:53.230Z,3.38
2023-01-13T17:26:32.098Z,6.68
2023-01-13T17:29:00.388Z,4.43
2023-01-13T17:31:28.063Z,6.28
2023-01-13T17:33:54.682Z,5.75
2023-01-13T17:36:21.235Z,9.18
2023-01-13T17:38:47.621Z,9.02
2023-01-13T17:41:14.080Z,9.73
2023-01-13T17:43:40.513Z,6.78
2023-01-13T17:46:11.578Z,9.68
2023-01-13T17:48:38.441Z,8.27
2023-01-13T17:51:09.365Z,8.30
2023-01-13T17:53:35.868Z,4.22
2023-01-13T17:56:02.249Z,2.40
2023-01-13T17:58:28.652Z,2.45
2023-01-13T18:00:55.059Z,2.88
2023-01-13T18:03:21.534Z,1.52
2023-01-13T18:05:47.958Z,3.00
2023-01-13T18:08:14.470Z,3.58
2023-01-13T18:10:40.872Z,1.20
2023-01-13T18:13:09.300Z,2.00
2023-01-13T18:15:36.015Z,1.27
2023-01-13T18:18:02.403Z,2.22
2023-01-13T18:20:47.341Z,3.63
2023-01-13T18:23:37.195Z,3.30
2023-01-13T18:26:34.535Z,3.33
2023-01-13T18:29:01.189Z,3.72
2023-01-13T18:31:28.276Z,2.47
2023-01-13T18:33:54.708Z,3.08
2023-01-13T18:36:21.366Z,2.38
2023-01-13T18:38:49.889Z,2.80
2023-01-13T18:41:35.053Z,1.60
2023-01-13T18:44:01.453Z,2.33
2023-01-13T18:46:27.993Z,2.60
2023-01-13T18:48:54.367Z,3.40
2023-01-13T18:51:20.777Z,7.22
2023-01-13T18:53:47.464Z,1.02
2023-01-13T18:56:14.222Z,1.83
2023-01-13T18:58:52.036Z,2.78
2023-01-13T19:01:26.675Z,1.65
2023-01-13T19:03:54.522Z,1.50
2023-01-13T19:06:21.277Z,2.88
2023-01-13T19:08:53.010Z,2.72
2023-01-13T19:11:21.486Z,3.75
2023-01-13T19:13:48.619Z,1.02
2023-01-13T19:16:16.108Z,2.05
2023-01-13T19:18:42.908Z,4.93
2023-01-13T19:21:09.597Z,3.05
2023-01-13T19:23:36.731Z,1.02
2023-01-13T19:26:05.902Z,2.53
2023-01-13T19:28:32.544Z,1.55
2023-01-13T19:31:01.479Z,1.38
2023-01-13T19:33:33.208Z,2.20
2023-01-13T19:35:59.797Z,5.10
2023-01-13T19:38:27.899Z,1.67
2023-01-13T19:41:02.399Z,2.08
2023-01-13T19:43:57.989Z,3.35
2023-01-13T19:46:26.096Z,4.55
2023-01-13T19:48:52.665Z,3.78
2023-01-13T19:51:19.153Z,4.32
2023-01-13T19:53:46.828Z,2.13
2023-01-13T19:56:14.478Z,3.10
2023-01-13T19:58:41.975Z,3.30
2023-01-13T20:01:10.262Z,6.63
2023-01-13T20:06:08.855Z,3.53
2023-01-13T20:08:35.452Z,2.60
2023-01-13T20:11:21.526Z,5.85
2023-01-13T20:13:49.155Z,4.47
2023-01-13T20:16:15.611Z,5.50
2023-01-13T20:18:42.040Z,4.47
2023-01-13T20:21:09.906Z,5.07
2023-01-13T20:23:36.353Z,7.03
2023-01-13T20:26:07.568Z,6.15
2023-01-13T20:28:37.369Z,3.42
2023-01-13T20:31:08.243Z,3.30
2023-01-13T20:33:34.712Z,5.40
2023-01-13T20:36:01.687Z,5.05
2023-01-13T20:38:28.692Z,5.85
2023-01-13T20:40:59.490Z,3.47
2023-01-13T20:43:26.956Z,7.15
2023-01-13T20:45:54.163Z,6.95
2023-01-13T20:48:20.747Z,5.47
2023-01-13T20:50:53.164Z,3.55
2023-01-13T20:53:19.858Z,8.32
2023-01-13T20:55:46.266Z,10.68
2023-01-13T20:58:12.659Z,5.20
2023-01-13T21:00:39.123Z,3.28
2023-01-13T21:03:05.494Z,5.88
2023-01-13T21:05:33.267Z,3.70
2023-01-13T21:07:59.831Z,4.88
2023-01-13T21:10:26.414Z,2.60
2023-01-13T21:13:11.462Z,4.80
2023-01-13T21:15:38.008Z,7.15
2023-01-13T21:18:23.126Z,7.03
2023-01-13T21:20:51.539Z,6.25
2023-01-13T21:23:17.970Z,4.60
2023-01-13T21:25:44.351Z,3.55
2023-01-13T21:28:12.021Z,4.05
2023-01-13T21:30:39.104Z,6.07
2023-01-13T21:33:06.139Z,6.78
2023-01-13T21:35:32.603Z,6.43
2023-01-13T21:37:59.022Z,7.40
2023-01-13T21:40:25.462Z,6.38
2023-01-13T21:43:10.558Z,5.07
2023-01-13T21:45:57.607Z,3.67
2023-01-13T21:48:24.120Z,4.45
2023-01-13T21:50:50.627Z,4.90
2023-01-13T21:53:16.985Z,9.50
2023-01-13T21:55:43.496Z,4.00
2023-01-13T21:58:14.370Z,5.68
2023-01-13T22:00:43.566Z,8.27
2023-01-13T22:03:12.006Z,6.72
2023-01-13T22:05:38.556Z,7.60
2023-01-13T22:08:06.356Z,4.22
2023-01-13T22:10:33.453Z,3.60
2023-01-13T22:13:20.388Z,9.25
2023-01-13T22:15:46.966Z,7.10
2023-01-13T22:18:13.519Z,11.90
2023-01-13T22:20:41.343Z,5.50
2023-01-13T22:23:07.784Z,4.95
2023-01-13T22:25:34.185Z,10.57
2023-01-13T22:28:03.708Z,6.57
2023-01-13T22:30:32.483Z,7.05
2023-01-13T22:32:59.772Z,5.47
2023-01-13T22:35:26.151Z,4.68
2023-01-13T22:37:52.517Z,7.40
2023-01-13T22:40:19.011Z,5.20
2023-01-13T22:42:45.531Z,4.65
2023-01-13T22:45:13.843Z,8.57
2023-01-13T22:47:40.477Z,8.73
2023-01-13T22:50:08.042Z,5.07
2023-01-13T22:52:34.908Z,6.10
2023-01-13T22:55:01.637Z,6.97
2023-01-13T22:57:47.598Z,7.90
2023-01-13T23:00:16.235Z,4.85
2023-01-13T23:02:42.752Z,8.32
2023-01-13T23:05:09.373Z,7.38
2023-01-13T23:07:36.156Z,5.65
2023-01-13T23:10:03.776Z,5.90
2023-01-13T23:12:30.213Z,8.75
2023-01-13T23:14:56.598Z,5.25
2023-01-13T23:17:23.042Z,6.20
2023-01-13T23:19:49.382Z,3.58
2023-01-13T23:22:15.844Z,10.90
2023-01-13T23:24:42.225Z,7.35
2023-01-13T23:27:08.633Z,5.65
2023-01-13T23:29:35.045Z,5.35
2023-01-13T23:32:01.387Z,6.00
2023-01-13T23:34:27.904Z,3.60
2023-01-13T23:36:54.352Z,3.17
2023-01-13T23:39:20.717Z,8.48
2023-01-13T23:41:47.045Z,6.45
2023-01-13T23:44:13.459Z,5.35
2023-01-13T23:46:39.867Z,5.80
2023-01-13T23:49:06.345Z,7.25
2023-01-13T23:51:33.138Z,7.53
2023-01-13T23:53:59.834Z,8.43
2023-01-13T23:56:29.075Z,11.13
2023-01-13T23:58:56.420Z,9.40
